createdAt,value
2023-04-13T00:00:43.328Z,35.56
2023-04-13T00:03:12.617Z,35.55
2023-04-13T00:05:40.824Z,35.51
2023-04-13T00:08:08.699Z,35.96
2023-04-13T00:10:36.812Z,35.75
2023-04-13T00:13:05.457Z,35.74
2023-04-13T00:15:34.816Z,35.74
2023-04-13T00:18:02.856Z,35.91
2023-04-13T00:20:30.749Z,35.68
2023-04-13T00:22:58.653Z,35.84
2023-04-13T00:25:26.559Z,35.86
2023-04-13T00:27:54.392Z,35.68
2023-04-13T00:30:22.380Z,35.79
2023-04-13T00:32:50.303Z,35.41
2023-04-13T00:35:19.013Z,35.75
2023-04-13T00:37:48.749Z,35.73
2023-04-13T00:40:18.099Z,35.91
2023-04-13T00:42:46.354Z,35.69
2023-04-13T00:45:14.405Z,35.65
2023-04-13T00:47:43.449Z,35.81
2023-04-13T00:50:11.368Z,35.97
2023-04-13T00:52:39.421Z,35.89
2023-04-13T00:55:07.448Z,35.94
2023-04-13T00:57:35.270Z,36.06
2023-04-13T01:00:06.600Z,36.25
2023-04-13T01:02:34.662Z,35.95
2023-04-13T01:05:02.502Z,36.24
2023-04-13T01:07:30.332Z,36.03
2023-04-13T01:09:58.259Z,35.94
2023-04-13T01:12:26.177Z,36.21
2023-04-13T01:14:56.907Z,35.97
2023-04-13T01:17:25.766Z,36.26
2023-04-13T01:19:53.872Z,36.08
2023-04-13T01:22:22.500Z,35.81
2023-04-13T01:24:50.318Z,36.20
2023-04-13T01:27:20.514Z,36.23
2023-04-13T01:29:48.458Z,36.31
2023-04-13T01:32:16.466Z,36.68
2023-04-13T01:34:45.308Z,36.24
2023-04-13T01:37:13.127Z,35.89
2023-04-13T01:39:41.256Z,36.06
2023-04-13T01:42:09.255Z,36.08
2023-04-13T01:44:37.348Z,35.84
2023-04-13T01:47:14.064Z,35.93
2023-04-13T01:49:41.834Z,36.03
2023-04-13T01:52:09.757Z,35.97
2023-04-13T01:54:37.528Z,36.25
2023-04-13T01:57:05.339Z,35.95
2023-04-13T01:59:33.220Z,35.93
2023-04-13T02:02:01.007Z,35.93
2023-04-13T02:04:29.583Z,36.13
2023-04-13T02:06:57.395Z,35.97
2023-04-13T02:09:25.237Z,35.97
2023-04-13T02:11:52.983Z,36.04
2023-04-13T02:14:20.714Z,36.13
2023-04-13T02:16:49.060Z,36.06
2023-04-13T02:19:16.965Z,35.79
2023-04-13T02:21:44.990Z,36.02
2023-04-13T02:24:15.318Z,35.94
2023-04-13T02:26:43.685Z,36.31
2023-04-13T02:29:11.448Z,36.07
2023-04-13T02:31:43.549Z,36.63
2023-04-13T02:34:11.504Z,36.16
2023-04-13T02:36:39.483Z,36.58
2023-04-13T02:39:07.292Z,35.96
2023-04-13T02:41:35.159Z,35.79
2023-04-13T02:44:02.920Z,36.49
2023-04-13T02:46:32.794Z,36.41
2023-04-13T02:49:01.088Z,36.17
2023-04-13T02:51:29.127Z,36.59
2023-04-13T02:53:57.972Z,36.42
2023-04-13T02:56:28.702Z,36.63
2023-04-13T02:58:56.990Z,36.40
2023-04-13T03:01:25.580Z,36.54
2023-04-13T03:03:53.400Z,36.37
2023-04-13T03:06:22.948Z,36.27
2023-04-13T03:08:51.391Z,36.21
2023-04-13T03:11:24.766Z,36.45
2023-04-13T03:13:58.528Z,36.70
2023-04-13T03:16:26.850Z,36.35
2023-04-13T03:18:54.763Z,36.53
2023-04-13T03:21:22.945Z,36.19
2023-04-13T03:23:52.847Z,36.47
2023-04-13T03:26:21.034Z,36.56
2023-04-13T03:28:48.862Z,36.78
2023-04-13T03:31:17.480Z,36.52
2023-04-13T03:33:45.303Z,36.58
2023-04-13T03:36:13.112Z,36.31
2023-04-13T03:38:40.870Z,36.73
2023-04-13T03:41:08.790Z,36.60
2023-04-13T03:43:36.612Z,36.26
2023-04-13T03:46:04.358Z,36.65
2023-04-13T03:48:32.169Z,36.79
2023-04-13T03:51:00.142Z,36.85
2023-04-13T03:53:27.916Z,36.12
2023-04-13T03:55:55.797Z,36.28
2023-04-13T03:58:23.625Z,36.75
2023-04-13T04:00:51.397Z,36.57
2023-04-13T04:03:19.247Z,36.65
2023-04-13T04:05:47.094Z,36.41
2023-04-13T04:08:14.923Z,36.23
2023-04-13T04:10:42.712Z,36.64
2023-04-13T04:13:10.507Z,36.72
2023-04-13T04:15:38.319Z,36.67
2023-04-13T04:18:06.149Z,36.31
2023-04-13T04:20:36.455Z,36.27
2023-04-13T04:23:05.170Z,36.61
2023-04-13T04:25:33.449Z,36.27
2023-04-13T04:28:02.610Z,36.70
2023-04-13T04:30:33.884Z,36.36
2023-04-13T04:33:01.880Z,36.62
2023-04-13T04:35:33.861Z,36.45
2023-04-13T04:38:03.693Z,36.55
2023-04-13T04:40:35.695Z,36.21
2023-04-13T04:43:04.817Z,36.60
2023-04-13T04:45:33.107Z,37.08
2023-04-13T04:48:03.464Z,37.15
2023-04-13T04:50:31.249Z,36.90
2023-04-13T04:52:59.411Z,37.29
2023-04-13T04:55:27.275Z,36.90
2023-04-13T04:57:58.453Z,37.25
2023-04-13T05:00:26.741Z,37.41
2023-04-13T05:02:54.829Z,37.18
2023-04-13T05:05:23.403Z,37.47
2023-04-13T05:07:51.729Z,37.65
2023-04-13T05:10:19.558Z,37.87
2023-04-13T05:12:50.107Z,37.66
2023-04-13T05:15:17.852Z,37.31
2023-04-13T05:17:46.916Z,37.33
2023-04-13T05:20:14.940Z,37.15
2023-04-13T05:22:42.782Z,37.21
2023-04-13T05:25:10.642Z,37.09
2023-04-13T05:27:38.470Z,37.22
2023-04-13T05:30:06.273Z,36.71
2023-04-13T05:32:34.101Z,36.98
2023-04-13T05:35:02.586Z,36.83
2023-04-13T05:37:32.851Z,36.87
2023-04-13T05:40:00.697Z,36.54
2023-04-13T05:42:28.481Z,36.81
2023-04-13T05:44:56.453Z,37.01
2023-04-13T05:47:24.785Z,36.77
2023-04-13T05:49:53.193Z,36.98
2023-04-13T05:52:22.044Z,36.30
2023-04-13T05:54:50.072Z,36.63
2023-04-13T05:57:20.976Z,36.46
2023-04-13T05:59:48.767Z,36.65
2023-04-13T06:02:16.653Z,36.74
2023-04-13T06:04:45.570Z,36.51
2023-04-13T06:07:14.711Z,36.43
2023-04-13T06:09:43.182Z,36.21
2023-04-13T06:12:10.968Z,36.56
2023-04-13T06:14:38.723Z,36.37
2023-04-13T06:17:07.042Z,36.34
2023-04-13T06:19:35.015Z,36.29
2023-04-13T06:22:02.790Z,36.22
2023-04-13T06:24:30.580Z,36.29
2023-04-13T06:26:58.426Z,36.06
2023-04-13T06:29:26.699Z,36.10
2023-04-13T06:31:54.549Z,36.32
2023-04-13T06:34:22.402Z,36.25
2023-04-13T06:36:50.260Z,36.26
2023-04-13T06:39:18.254Z,36.13
2023-04-13T06:41:46.034Z,35.88
2023-04-13T06:44:13.904Z,36.18
2023-04-13T06:46:41.786Z,35.86
2023-04-13T06:49:10.124Z,36.25
2023-04-13T06:51:37.941Z,35.87
2023-04-13T06:54:06.091Z,35.77
2023-04-13T06:56:34.033Z,36.10
2023-04-13T06:59:03.043Z,35.72
2023-04-13T07:01:31.169Z,36.05
2023-04-13T07:04:00.123Z,36.42
2023-04-13T07:06:27.998Z,36.09
2023-04-13T07:08:55.874Z,35.72
2023-04-13T07:11:23.672Z,35.63
2023-04-13T07:13:51.459Z,35.36
2023-04-13T07:16:19.240Z,35.53
2023-04-13T07:18:47.065Z,35.56
2023-04-13T07:21:14.846Z,35.55
2023-04-13T07:23:42.805Z,35.65
2023-04-13T07:26:11.079Z,35.42
2023-04-13T07:28:38.909Z,35.21
2023-04-13T07:31:07.087Z,35.48
2023-04-13T07:33:34.994Z,35.17
2023-04-13T07:36:02.763Z,35.35
2023-04-13T07:38:30.503Z,34.86
2023-04-13T07:40:58.301Z,35.16
2023-04-13T07:43:26.366Z,34.87
2023-04-13T07:45:54.203Z,35.13
2023-04-13T07:48:21.946Z,34.88
2023-04-13T07:50:49.703Z,35.08
2023-04-13T07:53:17.488Z,35.28
2023-04-13T07:55:45.283Z,35.07
2023-04-13T07:58:13.087Z,35.04
2023-04-13T08:00:41.080Z,35.19
2023-04-13T08:03:08.990Z,35.04
2023-04-13T08:05:37.417Z,35.04
2023-04-13T08:08:05.243Z,34.48
2023-04-13T08:10:32.998Z,34.54
2023-04-13T08:13:01.020Z,34.74
2023-04-13T08:15:29.086Z,34.58
2023-04-13T08:17:58.496Z,34.46
2023-04-13T08:20:26.361Z,34.61
2023-04-13T08:22:54.157Z,34.22
2023-04-13T08:25:21.957Z,34.29
2023-04-13T08:27:49.713Z,34.49
2023-04-13T08:30:17.450Z,34.33
2023-04-13T08:32:45.262Z,34.37
2023-04-13T08:35:13.106Z,34.54
2023-04-13T08:37:40.999Z,34.06
2023-04-13T08:40:11.981Z,34.25
2023-04-13T08:42:40.101Z,33.94
2023-04-13T08:45:08.657Z,34.14
2023-04-13T08:47:36.409Z,34.09
2023-04-13T08:50:04.185Z,33.86
2023-04-13T08:52:31.920Z,34.10
2023-04-13T08:55:01.491Z,33.91
2023-04-13T08:57:29.336Z,34.00
2023-04-13T08:59:57.648Z,33.86
2023-04-13T09:02:26.484Z,33.97
2023-04-13T09:04:54.589Z,33.78
2023-04-13T09:07:22.474Z,33.63
2023-04-13T09:09:51.427Z,33.79
2023-04-13T09:12:19.218Z,33.83
2023-04-13T09:14:47.035Z,33.66
2023-04-13T09:17:14.851Z,33.91
2023-04-13T09:19:42.678Z,33.78
2023-04-13T09:22:10.741Z,33.40
2023-04-13T09:24:38.553Z,33.49
2023-04-13T09:27:06.359Z,33.78
2023-04-13T09:29:34.587Z,33.93
2023-04-13T09:32:03.200Z,33.59
2023-04-13T09:34:31.165Z,33.70
2023-04-13T09:37:01.621Z,33.61
2023-04-13T09:39:29.883Z,33.55
2023-04-13T09:41:58.224Z,33.89
2023-04-13T09:44:28.725Z,33.38
2023-04-13T09:46:56.663Z,33.70
2023-04-13T09:49:25.640Z,33.67
2023-04-13T09:51:53.479Z,33.45
2023-04-13T09:54:21.466Z,33.65
2023-04-13T09:56:52.697Z,33.73
2023-04-13T09:59:21.052Z,33.70
2023-04-13T10:01:49.187Z,34.08
2023-04-13T10:04:17.102Z,33.82
2023-04-13T10:06:44.901Z,33.67
2023-04-13T10:09:13.024Z,33.64
2023-04-13T10:11:40.841Z,33.70
2023-04-13T10:14:10.001Z,33.46
2023-04-13T10:16:37.860Z,33.40
2023-04-13T10:19:06.480Z,33.63
2023-04-13T10:21:35.721Z,33.65
2023-04-13T10:24:03.532Z,33.48
2023-04-13T10:26:31.373Z,33.51
2023-04-13T10:28:59.502Z,33.57
2023-04-13T10:31:29.151Z,33.40
2023-04-13T10:33:57.231Z,33.33
2023-04-13T10:36:25.090Z,33.68
2023-04-13T10:38:52.901Z,33.67
2023-04-13T10:41:20.734Z,33.09
2023-04-13T10:43:49.041Z,33.75
2023-04-13T10:46:16.889Z,33.39
2023-04-13T10:48:44.831Z,33.77
2023-04-13T10:51:12.648Z,33.73
2023-04-13T10:53:40.542Z,33.99
2023-04-13T10:56:08.350Z,34.01
2023-04-13T10:58:36.263Z,33.70
2023-04-13T11:01:05.182Z,33.68
2023-04-13T11:03:33.113Z,33.72
2023-04-13T11:06:01.027Z,34.24
2023-04-13T11:08:30.463Z,33.93
2023-04-13T11:10:58.258Z,34.02
2023-04-13T11:13:27.103Z,34.33
2023-04-13T11:15:55.087Z,34.14
2023-04-13T11:18:22.849Z,33.79
2023-04-13T11:20:50.812Z,33.64
2023-04-13T11:23:20.066Z,33.71
2023-04-13T11:25:47.855Z,33.51
2023-04-13T11:28:15.785Z,33.86
2023-04-13T11:30:43.713Z,33.39
2023-04-13T11:33:11.810Z,33.84
2023-04-13T11:35:39.642Z,33.90
2023-04-13T11:38:08.410Z,33.50
2023-04-13T11:40:36.177Z,33.50
2023-04-13T11:43:03.963Z,33.81
2023-04-13T11:45:32.054Z,33.88
2023-04-13T11:47:59.981Z,33.52
2023-04-13T11:50:28.041Z,33.71
2023-04-13T11:52:56.962Z,33.80
2023-04-13T11:55:24.940Z,33.66
2023-04-13T11:57:52.975Z,33.57
2023-04-13T12:00:24.059Z,33.79
2023-04-13T12:05:27.870Z,33.82
2023-04-13T12:07:56.106Z,33.81
2023-04-13T12:10:25.609Z,33.93
2023-04-13T12:13:11.224Z,33.87
2023-04-13T12:16:04.411Z,33.64
2023-04-13T12:18:37.272Z,33.81
2023-04-13T12:21:06.079Z,33.94
2023-04-13T12:23:34.064Z,33.94
2023-04-13T12:26:24.487Z,33.59
2023-04-13T12:28:50.693Z,33.57
2023-04-13T12:31:18.548Z,33.49
2023-04-13T12:33:46.398Z,33.41
2023-04-13T12:36:14.247Z,33.26
2023-04-13T12:38:42.684Z,33.73
2023-04-13T12:41:10.838Z,33.47
2023-04-13T12:43:38.681Z,33.80
2023-04-13T12:46:06.649Z,33.52
2023-04-13T12:48:34.564Z,33.49
2023-04-13T12:51:02.368Z,33.46
2023-04-13T12:53:30.167Z,33.80
2023-04-13T12:55:58.013Z,33.76
2023-04-13T12:58:25.888Z,33.87
2023-04-13T13:00:53.745Z,33.63
2023-04-13T13:03:21.572Z,33.48
2023-04-13T13:05:49.682Z,34.06
2023-04-13T13:08:17.622Z,33.62
2023-04-13T13:10:45.498Z,33.91
2023-04-13T13:13:13.299Z,33.65
2023-04-13T13:15:41.453Z,33.82
2023-04-13T13:18:10.906Z,33.64
2023-04-13T13:20:41.433Z,33.85
2023-04-13T13:23:09.466Z,33.24
2023-04-13T13:25:39.708Z,33.72
2023-04-13T13:28:14.251Z,33.73
2023-04-13T13:30:43.254Z,33.54
2023-04-13T13:33:11.198Z,33.65
2023-04-13T13:35:39.132Z,33.70
2023-04-13T13:38:07.031Z,33.51
2023-04-13T13:40:34.818Z,33.98
2023-04-13T13:43:02.672Z,34.10
2023-04-13T13:45:30.756Z,33.79
2023-04-13T13:47:58.503Z,33.68
2023-04-13T13:50:27.407Z,33.19
2023-04-13T13:53:03.838Z,32.36
2023-04-13T13:55:32.988Z,31.83
2023-04-13T13:58:00.795Z,31.83
2023-04-13T14:00:28.630Z,31.56
2023-04-13T14:02:56.511Z,31.50
2023-04-13T14:05:24.365Z,30.92
2023-04-13T14:07:52.234Z,31.02
2023-04-13T14:10:20.023Z,30.99
2023-04-13T14:12:50.529Z,30.47
2023-04-13T14:15:18.848Z,30.91
2023-04-13T14:17:55.510Z,30.91
2023-04-13T14:20:34.477Z,31.03
2023-04-13T14:23:02.310Z,31.10
2023-04-13T14:25:30.150Z,31.15
2023-04-13T14:27:57.914Z,30.76
2023-04-13T14:30:27.908Z,31.25
2023-04-13T14:32:56.405Z,31.14
2023-04-13T14:35:24.612Z,31.05
2023-04-13T14:37:52.750Z,30.99
2023-04-13T14:40:22.751Z,31.26
2023-04-13T14:42:51.278Z,31.30
2023-04-13T14:45:19.134Z,31.10
2023-04-13T14:47:46.937Z,31.67
2023-04-13T14:50:15.905Z,31.66
2023-04-13T14:52:43.665Z,31.49
2023-04-13T14:55:11.617Z,31.56
2023-04-13T14:57:39.456Z,31.45
2023-04-13T15:00:09.649Z,31.26
2023-04-13T15:02:37.833Z,31.83
2023-04-13T15:05:06.612Z,31.96
2023-04-13T15:07:34.513Z,31.65
2023-04-13T15:10:05.626Z,31.68
2023-04-13T15:12:33.444Z,32.01
2023-04-13T15:15:01.433Z,32.30
2023-04-13T15:17:29.995Z,32.02
2023-04-13T15:19:57.825Z,32.19
2023-04-13T15:22:26.295Z,32.47
2023-04-13T15:24:54.154Z,32.33
2023-04-13T15:27:22.024Z,32.16
2023-04-13T15:29:49.848Z,32.34
2023-04-13T15:32:17.780Z,32.16
2023-04-13T15:34:46.534Z,32.50
2023-04-13T15:37:14.463Z,32.04
2023-04-13T15:39:42.289Z,32.33
2023-04-13T15:42:10.179Z,32.15
2023-04-13T15:44:37.975Z,31.58
2023-04-13T15:47:05.977Z,31.46
2023-04-13T15:49:33.892Z,31.61
2023-04-13T15:52:01.770Z,31.20
2023-04-13T15:54:29.974Z,31.37
2023-04-13T15:56:58.545Z,31.18
2023-04-13T15:59:26.956Z,31.08
2023-04-13T16:01:54.980Z,31.19
2023-04-13T16:04:23.630Z,31.31
2023-04-13T16:07:05.027Z,31.59
2023-04-13T16:09:39.297Z,31.43
2023-04-13T16:12:08.383Z,31.07
2023-04-13T16:14:39.324Z,31.12
2023-04-13T16:17:07.886Z,31.17
2023-04-13T16:19:35.696Z,31.46
2023-04-13T16:22:03.628Z,31.44
2023-04-13T16:24:33.414Z,31.45
2023-04-13T16:27:01.514Z,31.73
2023-04-13T16:29:29.474Z,31.95
2023-04-13T16:31:57.363Z,31.86
2023-04-13T16:34:26.535Z,31.88
2023-04-13T16:36:54.679Z,32.01
2023-04-13T16:39:22.524Z,31.71
2023-04-13T16:41:50.367Z,32.05
2023-04-13T16:44:18.173Z,31.94
2023-04-13T16:46:46.334Z,32.11
2023-04-13T16:49:14.310Z,32.26
2023-04-13T16:51:42.098Z,32.20
2023-04-13T16:54:13.823Z,32.35
2023-04-13T16:56:41.794Z,32.34
2023-04-13T16:59:09.600Z,32.26
2023-04-13T17:01:39.699Z,32.41
2023-04-13T17:04:07.854Z,32.79
2023-04-13T17:06:36.067Z,32.81
2023-04-13T17:09:03.902Z,32.97
2023-04-13T17:11:31.812Z,33.39
2023-04-13T17:13:59.635Z,33.15
2023-04-13T17:16:29.557Z,33.27
2023-04-13T17:18:57.983Z,32.90
2023-04-13T17:21:26.003Z,33.07
2023-04-13T17:23:53.778Z,33.13
2023-04-13T17:26:21.645Z,33.31
2023-04-13T17:28:49.483Z,33.43
2023-04-13T17:31:17.366Z,33.64
2023-04-13T17:33:45.727Z,33.48
2023-04-13T17:36:13.529Z,32.73
2023-04-13T17:38:41.419Z,32.19
2023-04-13T17:41:09.179Z,31.65
2023-04-13T17:43:37.003Z,31.84
2023-04-13T17:46:04.877Z,31.81
2023-04-13T17:48:32.711Z,31.22
2023-04-13T17:51:00.638Z,31.65
2023-04-13T17:53:28.920Z,31.50
2023-04-13T17:55:56.967Z,31.41
2023-04-13T17:58:25.103Z,31.70
2023-04-13T18:00:52.894Z,31.71
2023-04-13T18:03:21.058Z,31.63
2023-04-13T18:05:48.948Z,31.37
2023-04-13T18:08:16.730Z,31.93
2023-04-13T18:10:45.135Z,32.16
2023-04-13T18:13:13.108Z,31.96
2023-04-13T18:15:41.292Z,31.84
2023-04-13T18:18:09.736Z,31.63
2023-04-13T18:20:38.073Z,31.48
2023-04-13T18:23:05.957Z,31.67
2023-04-13T18:25:33.786Z,31.90
2023-04-13T18:28:01.651Z,31.74
2023-04-13T18:30:29.453Z,32.14
2023-04-13T18:32:57.404Z,32.04
2023-04-13T18:35:25.213Z,32.39
2023-04-13T18:37:53.034Z,32.83
2023-04-13T18:40:21.309Z,32.71
2023-04-13T18:42:50.204Z,32.43
2023-04-13T18:45:18.066Z,32.82
2023-04-13T18:47:46.583Z,32.86
2023-04-13T18:50:14.406Z,33.07
2023-04-13T18:52:42.467Z,32.64
2023-04-13T18:55:10.314Z,33.05
2023-04-13T18:57:40.075Z,32.98
2023-04-13T19:00:10.363Z,33.35
2023-04-13T19:02:38.439Z,33.65
2023-04-13T19:05:07.016Z,33.26
2023-04-13T19:07:35.758Z,32.76
2023-04-13T19:10:03.952Z,33.39
2023-04-13T19:12:32.066Z,33.12
2023-04-13T19:14:59.870Z,33.56
2023-04-13T19:17:27.683Z,33.52
2023-04-13T19:19:55.981Z,33.56
2023-04-13T19:22:23.853Z,33.45
2023-04-13T19:24:52.273Z,33.56
2023-04-13T19:27:20.488Z,33.82
2023-04-13T19:29:48.313Z,33.88
2023-04-13T19:32:16.994Z,34.18
2023-04-13T19:34:45.062Z,34.28
2023-04-13T19:37:12.888Z,33.98
2023-04-13T19:39:40.687Z,33.90
2023-04-13T19:42:09.935Z,34.02
2023-04-13T19:44:37.723Z,34.21
2023-04-13T19:47:05.981Z,34.24
2023-04-13T19:49:34.024Z,34.43
2023-04-13T19:52:01.953Z,34.16
2023-04-13T19:54:29.798Z,34.49
2023-04-13T19:56:57.661Z,34.45
2023-04-13T19:59:25.545Z,34.48
2023-04-13T20:01:53.521Z,34.61
2023-04-13T20:04:21.503Z,34.61
2023-04-13T20:06:49.477Z,34.32
2023-04-13T20:09:17.394Z,34.79
2023-04-13T20:11:45.226Z,34.80
2023-04-13T20:14:13.196Z,34.56
2023-04-13T20:16:41.144Z,34.59
2023-04-13T20:19:09.563Z,34.74
2023-04-13T20:21:38.016Z,34.79
2023-04-13T20:24:05.807Z,34.78
2023-04-13T20:26:33.694Z,34.71
2023-04-13T20:29:02.342Z,34.91
2023-04-13T20:31:30.269Z,35.11
2023-04-13T20:33:58.537Z,35.39
2023-04-13T20:36:27.179Z,35.16
2023-04-13T20:38:59.810Z,35.26
2023-04-13T20:41:30.069Z,35.20
2023-04-13T20:43:58.750Z,35.23
2023-04-13T20:46:34.943Z,35.20
2023-04-13T20:49:04.370Z,35.26
2023-04-13T20:51:33.382Z,35.30
2023-04-13T20:54:03.138Z,35.46
2023-04-13T20:56:31.664Z,35.15
2023-04-13T20:59:00.954Z,34.86
2023-04-13T21:01:30.340Z,35.41
2023-04-13T21:03:58.536Z,35.18
2023-04-13T21:06:29.103Z,35.08
2023-04-13T21:08:56.943Z,35.24
2023-04-13T21:11:24.763Z,35.59
2023-04-13T21:13:52.704Z,35.52
2023-04-13T21:16:20.585Z,35.59
2023-04-13T21:18:48.409Z,35.61
2023-04-13T21:21:16.223Z,35.24
2023-04-13T21:23:44.109Z,35.31
2023-04-13T21:26:11.936Z,35.58
2023-04-13T21:28:39.707Z,35.33
2023-04-13T21:31:07.511Z,36.06
2023-04-13T21:33:35.484Z,35.65
2023-04-13T21:38:34.102Z,35.79
2023-04-13T21:41:02.014Z,35.58
2023-04-13T21:43:29.841Z,35.91
2023-04-13T21:45:58.606Z,35.67
2023-04-13T21:48:26.442Z,35.44
2023-04-13T21:50:54.399Z,35.84
2023-04-13T21:53:22.224Z,35.63
2023-04-13T21:55:49.994Z,35.81
2023-04-13T21:58:17.833Z,35.65
2023-04-13T22:00:46.113Z,35.57
2023-04-13T22:03:14.374Z,35.91
2023-04-13T22:05:42.366Z,35.81
2023-04-13T22:08:10.283Z,35.87
2023-04-13T22:10:38.053Z,35.71
2023-04-13T22:13:06.004Z,35.73
2023-04-13T22:15:33.818Z,35.72
2023-04-13T22:18:01.721Z,36.10
2023-04-13T22:20:29.610Z,35.97
2023-04-13T22:22:57.385Z,36.00
2023-04-13T22:25:27.968Z,35.63
2023-04-13T22:27:55.725Z,35.83
2023-04-13T22:30:23.509Z,35.65
2023-04-13T22:32:51.287Z,35.97
2023-04-13T22:35:19.235Z,36.00
2023-04-13T22:37:47.020Z,35.71
2023-04-13T22:40:14.812Z,35.64
2023-04-13T22:42:42.617Z,35.80
2023-04-13T22:45:10.586Z,35.61
2023-04-13T22:47:38.485Z,35.94
2023-04-13T22:50:06.696Z,35.75
2023-04-13T22:52:34.454Z,35.80
2023-04-13T22:55:02.408Z,36.03
2023-04-13T22:57:30.427Z,36.17
2023-04-13T22:59:58.298Z,35.72
2023-04-13T23:02:26.243Z,35.66
2023-04-13T23:04:54.264Z,35.62
2023-04-13T23:07:22.075Z,35.96
2023-04-13T23:09:49.879Z,35.95
2023-04-13T23:12:17.839Z,35.79
2023-04-13T23:14:45.717Z,36.18
2023-04-13T23:17:13.497Z,35.71
2023-04-13T23:19:41.362Z,35.94
2023-04-13T23:22:09.192Z,35.82
2023-04-13T23:24:36.959Z,36.02
2023-04-13T23:27:04.817Z,35.92
2023-04-13T23:29:32.575Z,36.04
2023-04-13T23:32:00.498Z,36.02
2023-04-13T23:34:28.409Z,36.20
2023-04-13T23:36:56.226Z,36.22
2023-04-13T23:39:24.037Z,35.91
2023-04-13T23:41:52.042Z,36.16
2023-04-13T23:44:19.806Z,36.14
2023-04-13T23:46:47.694Z,36.06
2023-04-13T23:49:15.534Z,35.95
2023-04-13T23:51:46.060Z,36.42
2023-04-13T23:54:13.835Z,36.11
2023-04-13T23:56:41.638Z,36.04
2023-04-13T23:59:13.569Z,36.15
